createdAt,value
2022-09-18T00:00:00.541Z,11.23
2022-09-18T00:05:02.356Z,11.25
2022-09-18T00:10:04.551Z,11.31
2022-09-18T00:15:07.899Z,11.39
2022-09-18T00:20:10.101Z,11.41
2022-09-18T00:25:11.970Z,11.49
2022-09-18T00:30:14.010Z,11.51
2022-09-18T00:35:16.303Z,11.54
2022-09-18T00:40:18.441Z,11.53
2022-09-18T00:45:20.344Z,11.47
2022-09-18T00:50:26.070Z,11.56
2022-09-18T00:55:41.184Z,11.67
2022-09-18T01:00:43.123Z,11.73
2022-09-18T01:05:54.214Z,11.76
2022-09-18T01:11:33.653Z,11.75
2022-09-18T01:16:44.072Z,11.76
2022-09-18T01:22:13.354Z,11.79
2022-09-18T01:28:04.451Z,11.88
2022-09-18T01:33:30.151Z,11.90
2022-09-18T01:38:41.767Z,11.80
2022-09-18T01:43:47.853Z,11.78
2022-09-18T01:49:16.655Z,11.87
2022-09-18T01:54:27.644Z,11.82
2022-09-18T01:59:36.970Z,11.81
2022-09-18T02:04:50.930Z,11.83
2022-09-18T02:09:52.934Z,11.80
2022-09-18T02:15:06.052Z,11.88
2022-09-18T02:20:31.262Z,11.89
2022-09-18T02:25:43.640Z,11.92
2022-09-18T02:30:45.640Z,11.78
2022-09-18T02:35:53.509Z,11.71
2022-09-18T02:41:07.143Z,11.68
2022-09-18T02:46:27.851Z,11.69
2022-09-18T02:51:50.349Z,11.67
2022-09-18T02:57:09.085Z,11.56
2022-09-18T03:02:11.244Z,11.55
2022-09-18T03:07:16.091Z,11.52
2022-09-18T03:12:20.549Z,11.55
2022-09-18T03:17:24.217Z,11.52
2022-09-18T03:22:27.600Z,11.51
2022-09-18T03:27:29.473Z,11.48
2022-09-18T03:32:32.360Z,11.40
2022-09-18T03:37:34.221Z,11.39
2022-09-18T03:42:38.799Z,11.39
2022-09-18T03:47:43.268Z,11.36
2022-09-18T03:52:50.957Z,11.38
2022-09-18T03:58:13.730Z,11.38
2022-09-18T04:03:38.602Z,11.42
2022-09-18T04:09:18.668Z,11.50
2022-09-18T04:14:29.947Z,11.48
2022-09-18T04:19:33.245Z,11.48
2022-09-18T04:24:36.468Z,11.45
2022-09-18T04:29:40.061Z,11.52
2022-09-18T04:34:43.574Z,11.54
2022-09-18T04:39:47.102Z,11.46
2022-09-18T04:44:49.847Z,11.47
2022-09-18T04:49:51.749Z,11.42
2022-09-18T04:54:54.341Z,11.38
2022-09-18T04:59:56.308Z,11.33
2022-09-18T05:04:58.205Z,11.32
2022-09-18T05:10:10.532Z,11.32
2022-09-18T05:15:14.727Z,11.26
2022-09-18T05:20:21.681Z,11.31
2022-09-18T05:25:29.016Z,11.26
2022-09-18T05:30:32.066Z,11.20
2022-09-18T05:35:36.789Z,11.18
2022-09-18T05:40:39.570Z,11.22
2022-09-18T05:45:42.726Z,11.25
2022-09-18T05:50:56.898Z,11.29
2022-09-18T05:56:02.045Z,11.34
2022-09-18T06:01:05.451Z,11.35
2022-09-18T06:06:29.648Z,11.44
2022-09-18T06:11:31.562Z,11.43
2022-09-18T06:16:34.016Z,11.48
2022-09-18T06:21:41.867Z,11.59
2022-09-18T06:26:49.063Z,11.72
2022-09-18T06:31:51.843Z,11.96
2022-09-18T06:36:56.891Z,12.21
2022-09-18T06:42:03.781Z,12.31
2022-09-18T06:47:43.715Z,12.33
2022-09-18T06:52:47.481Z,12.35
2022-09-18T06:57:56.722Z,12.36
2022-09-18T07:03:00.818Z,12.44
2022-09-18T07:08:28.395Z,12.63
2022-09-18T07:13:38.256Z,12.61
2022-09-18T07:18:41.347Z,12.58
2022-09-18T07:23:46.164Z,12.53
2022-09-18T07:28:48.085Z,12.50
2022-09-18T07:34:01.975Z,12.41
2022-09-18T07:39:05.264Z,12.34
2022-09-18T07:44:18.875Z,12.27
2022-09-18T07:49:22.714Z,12.21
2022-09-18T07:54:26.701Z,12.43
2022-09-18T07:59:35.087Z,12.73
2022-09-18T08:04:37.967Z,13.11
2022-09-18T08:09:45.641Z,13.56
2022-09-18T08:15:06.540Z,13.64
2022-09-18T08:20:26.856Z,13.71
2022-09-18T08:25:35.929Z,14.06
2022-09-18T08:30:38.345Z,14.10
2022-09-18T08:35:44.677Z,14.19
2022-09-18T08:41:36.988Z,14.36
2022-09-18T08:46:58.925Z,14.41
2022-09-18T08:52:15.049Z,14.77
2022-09-18T08:57:39.337Z,15.12
2022-09-18T09:02:47.538Z,15.06
2022-09-18T09:08:11.162Z,15.18
2022-09-18T09:13:34.711Z,14.87
2022-09-18T09:18:55.488Z,14.78
2022-09-18T09:24:03.558Z,14.93
2022-09-18T09:29:40.099Z,15.40
2022-09-18T09:35:26.363Z,15.52
2022-09-18T09:40:46.863Z,15.21
2022-09-18T09:45:52.511Z,14.91
2022-09-18T09:51:08.151Z,14.65
2022-09-18T09:56:22.779Z,15.07
2022-09-18T10:01:35.010Z,15.48
2022-09-18T10:06:51.237Z,15.96
2022-09-18T10:12:15.964Z,16.07
2022-09-18T10:17:21.942Z,16.19
2022-09-18T10:22:27.051Z,15.88
2022-09-18T10:27:29.205Z,15.46
2022-09-18T10:32:37.980Z,15.31
2022-09-18T10:38:02.283Z,15.53
2022-09-18T10:43:19.060Z,15.76
2022-09-18T10:48:27.507Z,15.84
2022-09-18T10:53:34.884Z,15.82
2022-09-18T10:59:14.357Z,15.85
2022-09-18T11:04:17.435Z,15.98
2022-09-18T11:09:30.497Z,16.11
2022-09-18T11:14:40.508Z,16.26
2022-09-18T11:19:55.918Z,16.37
2022-09-18T11:25:26.690Z,16.36
2022-09-18T11:30:38.586Z,16.53
2022-09-18T11:35:54.833Z,16.54
2022-09-18T11:41:00.505Z,16.54
2022-09-18T11:46:19.116Z,16.73
2022-09-18T11:51:32.525Z,16.82
2022-09-18T11:56:44.586Z,16.95
2022-09-18T12:01:55.050Z,16.76
2022-09-18T12:12:43.213Z,16.82
2022-09-18T12:17:52.686Z,16.79
2022-09-18T12:22:57.750Z,16.89
2022-09-18T12:28:21.101Z,16.83
2022-09-18T12:33:35.688Z,16.53
2022-09-18T12:38:57.092Z,16.58
2022-09-18T12:44:01.858Z,16.81
2022-09-18T12:49:20.283Z,16.94
2022-09-18T12:54:59.852Z,16.62
2022-09-18T13:00:12.776Z,16.30
2022-09-18T13:05:24.132Z,16.07
2022-09-18T13:10:32.510Z,16.32
2022-09-18T13:15:51.413Z,16.21
2022-09-18T13:20:55.705Z,16.17
2022-09-18T13:25:58.977Z,16.29
2022-09-18T13:31:13.126Z,16.68
2022-09-18T13:36:23.930Z,16.93
2022-09-18T13:41:26.478Z,16.68
2022-09-18T13:46:38.635Z,16.55
2022-09-18T13:51:40.616Z,16.43
2022-09-18T13:57:15.197Z,16.26
2022-09-18T14:02:42.473Z,16.07
2022-09-18T14:07:52.250Z,15.87
2022-09-18T14:13:22.892Z,15.82
2022-09-18T14:18:42.615Z,15.62
2022-09-18T14:23:49.160Z,15.57
2022-09-18T14:28:51.954Z,15.42
2022-09-18T14:33:56.373Z,15.26
2022-09-18T14:38:58.445Z,15.04
2022-09-18T14:44:06.977Z,14.96
2022-09-18T14:49:26.356Z,14.79
2022-09-18T14:54:28.998Z,14.63
2022-09-18T14:59:31.559Z,14.14
2022-09-18T15:04:33.470Z,14.03
2022-09-18T15:09:35.400Z,14.01
2022-09-18T15:14:44.145Z,13.72
2022-09-18T15:20:16.612Z,13.45
2022-09-18T15:25:23.879Z,13.43
2022-09-18T15:30:26.311Z,13.35
2022-09-18T15:35:33.864Z,13.14
2022-09-18T15:40:38.828Z,12.99
2022-09-18T15:46:02.609Z,12.87
2022-09-18T15:51:25.828Z,12.73
2022-09-18T15:56:30.016Z,12.63
2022-09-18T16:01:40.109Z,12.65
2022-09-18T16:06:51.234Z,12.73
2022-09-18T16:11:53.950Z,12.68
2022-09-18T16:16:56.355Z,12.68
2022-09-18T16:22:11.177Z,12.71
2022-09-18T16:27:17.127Z,12.70
2022-09-18T16:32:21.479Z,12.57
2022-09-18T16:37:24.301Z,12.48
2022-09-18T16:42:26.638Z,12.42
2022-09-18T16:47:28.474Z,12.39
2022-09-18T16:52:30.376Z,12.35
2022-09-18T16:57:32.253Z,12.30
2022-09-18T17:02:35.073Z,12.32
2022-09-18T17:07:37.037Z,12.28
2022-09-18T17:12:40.246Z,12.23
2022-09-18T17:17:43.657Z,12.15
2022-09-18T17:22:46.988Z,12.09
2022-09-18T17:27:51.003Z,12.05
2022-09-18T17:32:53.400Z,11.98
2022-09-18T17:37:55.196Z,11.90
2022-09-18T17:42:57.009Z,11.88
2022-09-18T17:47:58.822Z,11.79
2022-09-18T17:53:00.629Z,11.75
2022-09-18T17:58:02.473Z,11.70
2022-09-18T18:03:04.284Z,11.63
2022-09-18T18:08:06.321Z,11.57
2022-09-18T18:13:08.462Z,11.56
2022-09-18T18:18:10.461Z,11.49
2022-09-18T18:23:14.377Z,11.47
2022-09-18T18:28:16.308Z,11.49
2022-09-18T18:33:18.174Z,11.48
2022-09-18T18:38:21.120Z,11.47
2022-09-18T18:43:24.017Z,11.50
2022-09-18T18:48:25.835Z,11.48
2022-09-18T18:53:27.612Z,11.43
2022-09-18T18:58:31.349Z,11.38
2022-09-18T19:03:38.065Z,11.32
2022-09-18T19:08:43.069Z,11.27
2022-09-18T19:13:53.181Z,11.31
2022-09-18T19:18:59.899Z,11.26
2022-09-18T19:24:04.148Z,11.21
2022-09-18T19:29:12.643Z,11.14
2022-09-18T19:34:18.077Z,11.12
2022-09-18T19:39:24.387Z,11.10
2022-09-18T19:44:53.791Z,11.13
2022-09-18T19:49:57.982Z,11.08
2022-09-18T19:55:00.429Z,11.08
2022-09-18T20:00:03.280Z,11.19
2022-09-18T20:05:13.810Z,11.13
2022-09-18T20:10:17.445Z,11.11
2022-09-18T20:15:19.551Z,11.07
2022-09-18T20:20:22.269Z,10.99
2022-09-18T20:25:25.290Z,10.95
2022-09-18T20:30:27.223Z,10.95
2022-09-18T20:35:29.062Z,10.98
2022-09-18T20:40:32.109Z,10.95
2022-09-18T20:45:33.956Z,10.94
2022-09-18T20:50:38.246Z,10.96
2022-09-18T20:55:40.042Z,10.91
2022-09-18T21:00:42.030Z,10.89
2022-09-18T21:05:43.896Z,10.90
2022-09-18T21:10:48.708Z,10.88
2022-09-18T21:15:50.508Z,10.88
2022-09-18T21:21:02.534Z,10.86
2022-09-18T21:26:14.475Z,10.84
2022-09-18T21:31:20.695Z,10.81
2022-09-18T21:36:24.544Z,10.82
2022-09-18T21:41:26.558Z,10.81
2022-09-18T21:46:28.603Z,10.81
2022-09-18T21:51:30.430Z,10.82
2022-09-18T21:56:33.254Z,10.81
2022-09-18T22:01:36.265Z,10.83
2022-09-18T22:06:43.710Z,10.87
2022-09-18T22:11:46.975Z,10.94
2022-09-18T22:16:49.483Z,11.03
2022-09-18T22:21:52.014Z,11.13
2022-09-18T22:26:57.894Z,11.22
2022-09-18T22:32:00.526Z,11.25
2022-09-18T22:37:03.119Z,11.25
2022-09-18T22:42:04.968Z,11.30
2022-09-18T22:47:06.810Z,11.28
2022-09-18T22:52:10.224Z,11.28
2022-09-18T22:57:11.994Z,11.40
2022-09-18T23:02:13.789Z,11.45
2022-09-18T23:07:15.602Z,11.41
2022-09-18T23:12:17.747Z,11.36
2022-09-18T23:17:19.482Z,11.31
2022-09-18T23:22:22.193Z,11.27
2022-09-18T23:27:23.987Z,11.21
2022-09-18T23:32:25.858Z,11.18
2022-09-18T23:37:27.575Z,11.17
2022-09-18T23:42:29.304Z,11.12
2022-09-18T23:47:31.137Z,11.07
2022-09-18T23:52:32.934Z,11.01
2022-09-18T23:57:35.979Z,10.97
